Latest Coastal Weather Observations for Sunshine Coast Airport

IDQ60701

Issued at 7:12 pm EST Friday 23 October 2020 (issued every 10 minutes, with the page automatically refreshed every 10 minutes)

About coastal observations | Map of coastal stations | Coastal observations for QLD | Marine services | Other Formats
Station Details ID: 040861 Name: SUNSHINE COAST AIRPORT Lat: -26.60 Lon: 153.09 Height: 3.42 m
Data from the previous 72 hours. | See also: Recent months at Sunshine Coast Airport
Date/Time
EST
Wind Sea
Height
m
Swell Vis
km
Cloud Weather Temp
°C
Press
MSL
hPa
Rain since
9am
mm
Dir  Spd
kts
Gust
kts
Height
m
Period
s
Dir
23/07:00pm N 12 17 - - - - 10 Partly cloudy - 22.7 1014.2 0.0
23/06:30pm NNE 12 16 - - - - 10 Partly cloudy - 22.5 1013.7 0.0
23/06:00pm NNE 14 17 - - - - 10 Mostly clear - 22.7 1013.2 0.0
23/05:30pm NNE 15 19 - - - - 10 Partly cloudy - 22.9 1013.1 0.0
23/05:00pm NNE 15 19 - - - - 10 - - 23.6 1012.8 0.0
23/04:30pm NE 15 17 - - - - 10 - - 23.8 1012.7 0.0
23/04:00pm NE 14 17 - - - - 10 Partly cloudy - 23.9 1012.4 0.0
23/03:30pm NE 14 17 - - - - 10 - - 24.1 1012.8 0.0
23/03:00pm NE 15 17 - - - - 10 - - 25.4 1012.8 0.0
23/02:30pm NE 14 17 - - - - 10 - - 25.2 1013.0 0.0
23/02:00pm NE 13 16 - - - - 10 - - 25.0 1013.6 0.0
23/01:30pm NE 14 16 - - - - 10 - - 25.6 1013.7 0.0
23/01:00pm NE 14 16 - - - - 10 - - 25.9 1014.1 0.0
23/12:30pm NE 14 17 - - - - 10 - - 25.8 1014.4 0.0
23/12:00pm NNE 15 18 - - - - 10 - - 26.1 1014.8 0.0
23/11:30am NE 14 17 - - - - 10 Partly cloudy - 25.3 1015.3 0.0
23/11:00am NE 14 16 - - - - 10 Partly cloudy - 25.6 1015.6 0.0
23/10:30am NE 12 15 - - - - 10 Partly cloudy - 25.7 1015.7 0.0
23/10:00am NE 10 13 - - - - 10 Partly cloudy - 25.2 1016.1 0.0
23/09:30am NE 8 10 - - - - 10 Partly cloudy - 23.7 1016.3 0.0
23/09:00am ENE 7 10 - - - - 10 Partly cloudy - 24.7 1016.2 0.0
23/08:30am NE 6 8 - - - - 10 Partly cloudy - 24.1 1016.2 0.0
23/08:00am NW 4 7 - - - - 10 Partly cloudy - 23.1 1016.0 0.0
23/07:30am WNW 3 4 - - - - 10 Partly cloudy - 22.0 1015.9 0.0
23/07:00am W 2 3 - - - - 10 Partly cloudy - 20.7 1015.9 0.0
23/06:30am WNW 3 4 - - - - 10 - - 19.8 1015.5 0.0
23/06:00am WNW 4 5 - - - - 10 Mostly clear - 18.8 1015.1 0.0
23/05:30am WNW 4 5 - - - - 10 Partly cloudy - 18.4 1014.9 0.0
23/05:00am WNW 4 5 - - - - 10 Cloudy - 18.3 1014.5 0.0
23/04:30am WSW 3 4 - - - - 10 Partly cloudy - 18.5 1014.4 0.0
23/04:00am WSW 3 4 - - - - 10 Partly cloudy - 18.6 1014.4 0.0
23/03:30am WSW 4 5 - - - - 10 Partly cloudy - 18.9 1014.4 0.0
23/03:00am W 4 4 - - - - 10 Cloudy - 18.8 1014.2 0.0
23/02:30am W 4 4 - - - - 10 Partly cloudy - 18.7 1014.1 0.0
23/02:00am SW 4 5 - - - - 10 Partly cloudy - 19.0 1014.4 0.0
23/01:30am W 4 6 - - - - 10 Partly cloudy - 18.5 1014.5 0.0
23/01:00am CALM 0 3 - - - - 10 Partly cloudy - 18.3 1014.8 0.0
23/12:30am CALM 0 3 - - - - 10 Partly cloudy - 17.9 1015.2 0.0
23/12:00am WSW 4 5 - - - - 10 Partly cloudy - 18.1 1015.5 0.0
 
Date/Time
EST
Wind Sea
Height
m
Swell Vis
km
Cloud Weather Temp
°C
Press
MSL
hPa
Rain since
9am
mm
Dir  Spd
kts
Gust
kts
Height
m
Period
s
Dir
22/11:30pm WSW 4 5 - - - - 10 Partly cloudy - 18.4 1016.1 0.0
22/11:00pm W 4 5 - - - - 10 Partly cloudy - 18.3 1016.1 0.0
22/10:30pm W 4 5 - - - - 10 Partly cloudy - 18.2 1015.8 0.0
22/10:00pm NW 3 5 - - - - 10 Partly cloudy - 19.0 1015.8 0.0
22/09:30pm NNE 7 9 - - - - 10 Cloudy - 21.1 1015.9 0.0
22/09:00pm NNE 8 10 - - - - 10 Cloudy - 21.6 1016.0 0.0
22/08:30pm NE 10 13 - - - - 10 Partly cloudy - 21.9 1015.6 0.0
22/08:00pm NNE 9 11 - - - - 10 Cloudy - 21.9 1015.2 0.0
22/07:30pm NE 10 12 - - - - 10 Partly cloudy - 22.0 1014.9 0.0
22/07:00pm NE 9 11 - - - - 10 Partly cloudy - 21.5 1014.9 0.0
22/06:30pm NE 9 11 - - - - 10 Partly cloudy - 21.6 1014.5 0.0
22/06:00pm NE 9 11 - - - - 10 Partly cloudy - 21.8 1014.1 0.0
22/05:30pm NE 9 11 - - - - 10 Partly cloudy - 22.4 1013.7 0.0
22/05:00pm ENE 8 10 - - - - 10 Cloudy - 22.9 1013.8 0.0
22/04:30pm ENE 9 11 - - - - 10 Partly cloudy - 23.0 1013.6 0.0
22/04:00pm ENE 9 11 - - - - 10 Partly cloudy - 23.5 1013.3 0.0
22/03:30pm ENE 10 13 - - - - 10 Partly cloudy - 23.2 1013.2 0.0
22/03:00pm ENE 11 13 - - - - 10 Mostly cloudy - 23.4 1013.1 0.0
22/02:30pm ENE 11 13 - - - - 10 Partly cloudy - 23.1 1013.2 0.0
22/02:00pm ENE 11 13 - - - - 10 Partly cloudy - 23.7 1013.3 0.0
22/01:30pm ENE 11 13 - - - - 10 Partly cloudy - 25.0 1013.4 0.0
22/01:00pm ENE 11 13 - - - - 10 Partly cloudy - 24.9 1013.5 0.0
22/12:30pm ENE 10 13 - - - - 10 Partly cloudy - 25.7 1014.0 0.0
22/12:00pm E 9 13 - - - - 10 Partly cloudy - 24.8 1014.2 0.0
22/11:30am E 9 11 - - - - 10 Cloudy - 23.3 1014.6 0.0
22/11:00am E 9 11 - - - - 10 Partly cloudy - 23.3 1015.0 0.0
22/10:30am ESE 7 10 - - - - 10 Cloudy - 22.2 1015.5 0.0
22/10:00am ESE 8 9 - - - - 10 Partly cloudy - 23.0 1015.6 0.0
22/09:30am ESE 8 10 - - - - 10 Partly cloudy - 23.7 1015.8 0.0
22/09:00am ESE 6 9 - - - - 10 Cloudy - 23.2 1015.9 1.2
22/08:30am ESE 5 8 - - - - 10 Partly cloudy - 23.2 1015.9 1.2
22/08:00am SE 5 8 - - - - 10 Cloudy - 22.7 1015.7 1.2
22/07:30am WSW 5 6 - - - - 10 Partly cloudy - 21.2 1015.3 1.2
22/07:00am WSW 5 7 - - - - 10 Partly cloudy - 20.2 1015.1 1.2
22/06:30am WSW 4 5 - - - - 10 Partly cloudy - 18.3 1014.9 1.2
22/06:00am W 5 6 - - - - 10 Mostly clear - 17.6 1014.5 1.2
22/05:30am WNW 4 5 - - - - 10 Partly cloudy - 16.8 1014.1 1.2
22/05:00am WNW 5 6 - - - - 10 Partly cloudy - 16.8 1013.8 1.2
22/04:30am SW 6 7 - - - - 10 - - 17.6 1013.3 1.2
22/04:00am SW 8 10 - - - - 10 Partly cloudy - 17.8 1013.2 1.2
22/03:30am N 4 7 - - - - 10 Partly cloudy - 18.5 1012.3 1.2
22/03:00am ENE 8 10 - - - - 10 Cloudy Showers 18.7 1013.1 1.0
22/02:30am WSW 5 6 - - - - 10 Cloudy - 18.6 1014.7 0.8
22/02:00am WSW 4 6 - - - - 10 Partly cloudy - 18.6 1015.0 0.8
22/01:30am WNW 4 7 - - - - 10 Partly cloudy - 18.3 1015.2 0.8
22/01:00am WSW 5 7 - - - - 10 Partly cloudy - 18.4 1015.6 0.8
22/12:30am SW 6 8 - - - - 10 Cloudy - 18.4 1015.8 0.8
22/12:00am WSW 6 7 - - - - 10 Mostly cloudy Rain 18.4 1015.9 0.8
 
Date/Time
EST
Wind Sea
Height
m
Swell Vis
km
Cloud Weather Temp
°C
Press
MSL
hPa
Rain since
9am
mm
Dir  Spd
kts
Gust
kts
Height
m
Period
s
Dir
21/11:30pm W 7 8 - - - - 10 Partly cloudy - 18.3 1016.1 0.8
21/11:00pm WNW 4 5 - - - - 10 Partly cloudy - 18.4 1015.8 0.8
21/10:30pm NW 5 6 - - - - 10 Partly cloudy - 18.2 1015.8 0.8
21/10:00pm W 3 4 - - - - 10 Partly cloudy - 18.0 1015.9 0.8
21/09:30pm W 3 4 - - - - 10 Partly cloudy - 18.6 1016.1 0.8
21/09:00pm WSW 4 5 - - - - 10 Cloudy - 18.7 1016.4 0.8
21/08:30pm WSW 6 7 - - - - 10 Partly cloudy - 19.0 1016.3 0.8
21/08:00pm ENE 6 8 - - - - 10 Partly cloudy - 20.8 1016.0 0.8
21/07:30pm NE 8 10 - - - - 10 - - 20.4 1015.1 0.8
21/07:00pm NE 10 13 - - - - 10 Partly cloudy - 20.0 1015.0 0.8
21/06:30pm NE 8 10 - - - - 10 Cloudy - 20.8 1014.8 0.6
21/06:00pm NE 7 10 - - - - 10 Mostly cloudy - 21.1 1014.9 0.6
21/05:30pm E 6 9 - - - - 10 Partly cloudy - 21.6 1014.8 0.6
21/05:00pm ESE 6 8 - - - - 10 Cloudy - 21.7 1014.7 0.6
21/04:30pm ESE 6 8 - - - - 10 Cloudy - 21.7 1014.9 0.6
21/04:00pm E 7 8 - - - - 10 Partly cloudy - 21.9 1014.7 0.6
21/03:30pm E 6 8 - - - - 10 Partly cloudy - 21.8 1014.6 0.6
21/03:00pm E 7 9 - - - - 10 Cloudy - 22.0 1014.6 0.6
21/02:30pm E 7 9 - - - - 10 Partly cloudy - 22.0 1014.8 0.6
21/02:00pm E 7 9 - - - - 10 Partly cloudy - 21.5 1014.8 0.6
21/01:30pm E 6 8 - - - - 10 Partly cloudy - 21.1 1015.1 0.2
21/01:00pm ESE 8 11 - - - - 10 Partly cloudy - 21.9 1015.3 0.0
21/12:30pm ESE 8 11 - - - - 10 Partly cloudy - 23.0 1015.6 0.0
21/12:00pm ESE 8 10 - - - - 10 Cloudy - 22.6 1016.1 0.0
21/11:30am ESE 9 12 - - - - 10 Cloudy - 22.8 1016.3 0.0
21/11:00am SE 10 13 - - - - 10 Partly cloudy - 23.4 1016.5 0.0
21/10:30am SE 9 13 - - - - 10 Partly cloudy - 23.3 1017.0 0.0
21/10:00am SE 11 15 - - - - 10 - - 23.7 1017.1 0.0
21/09:30am SE 12 15 - - - - 10 - - 23.1 1017.3 0.0
21/09:00am SSE 11 15 - - - - 10 Mostly clear - 23.3 1017.6 0.0
21/08:30am SSE 10 14 - - - - 10 Partly cloudy - 22.3 1017.6 0.0
21/08:00am S 9 12 - - - - 10 Partly cloudy - 21.7 1017.4 0.0
21/07:30am SSW 9 13 - - - - 10 Partly cloudy - 20.5 1017.3 0.0
21/07:00am SSW 7 10 - - - - 10 Partly cloudy - 20.3 1016.9 0.0
21/06:30am SW 6 7 - - - - 10 Cloudy - 19.7 1016.6 0.0
21/06:00am SW 8 10 - - - - 10 Cloudy - 19.6 1016.3 0.0
21/05:30am SSW 7 10 - - - - 10 Partly cloudy - 19.3 1015.8 0.0
21/05:00am S 7 8 - - - - 10 Partly cloudy - 19.3 1015.4 0.0
21/04:30am SW 6 8 - - - - 10 Partly cloudy - 19.2 1015.3 0.0
21/04:00am SE 8 10 - - - - 10 Partly cloudy - 21.0 1015.0 0.0
21/03:30am SE 8 11 - - - - 10 Partly cloudy - 21.0 1015.0 0.0
21/03:00am SE 9 12 - - - - 10 Cloudy - 21.3 1015.0 0.0
21/02:30am SE 8 12 - - - - 10 Partly cloudy - 21.2 1015.0 0.0
21/02:00am ESE 9 13 - - - - 10 Partly cloudy - 21.4 1015.1 0.0
21/01:30am SE 9 13 - - - - 10 Partly cloudy - 21.1 1015.6 0.0
21/01:00am SE 10 14 - - - - 10 Partly cloudy - 21.6 1016.1 0.0
21/12:30am SE 11 16 - - - - 10 Partly cloudy - 21.7 1016.2 0.0
21/12:00am SE 11 17 - - - - 10 Cloudy - 21.7 1016.3 0.0
 
Date/Time
EST
Wind Sea
Height
m
Swell Vis
km
Cloud Weather Temp
°C
Press
MSL
hPa
Rain since
9am
mm
Dir  Spd
kts
Gust
kts
Height
m
Period
s
Dir
20/11:30pm SE 11 15 - - - - 10 Partly cloudy - 21.7 1016.4 0.0
20/11:00pm SE 11 15 - - - - 10 Partly cloudy - 21.8 1016.5 0.0
20/10:30pm SE 11 15 - - - - 10 Partly cloudy - 21.8 1016.7 0.0
20/10:00pm SE 11 16 - - - - 10 Partly cloudy - 21.7 1016.7 0.0
20/09:30pm SE 12 18 - - - - 10 Partly cloudy - 21.7 1016.6 0.0
20/09:00pm SE 13 17 - - - - 10 Cloudy - 21.7 1016.7 0.0
20/08:30pm SE 12 17 - - - - 10 Partly cloudy - 21.9 1016.6 0.0
20/08:00pm SE 12 17 - - - - 10 Partly cloudy - 21.9 1016.6 0.0
20/07:30pm SE 13 18 - - - - 10 Partly cloudy - 22.0 1016.3 0.0

Other formats

Comma delimited format used in spreadsheet applications
http://www.bom.gov.au/fwo/IDQ60701/IDQ60701.94569.axf

JavaScript Object Notation format (JSON) in row-major order
http://www.bom.gov.au/fwo/IDQ60701/IDQ60701.94569.json

Data quality

Most of these data are generated automatically and are frequently updated. Quality checks on data are not normally performed. It is possible for incorrect values to appear. Refer to information at About Latest Weather Observations and please check the disclaimer before using these data.